Cedar Park's Hourly Summary for Monday, May 14, 2018
Hour Temp
(f)
RH
(%)
Solar Rad.
(MJ/m2)
Rainfall
(in)
Wind
(mph)
5/14/2018 12:00 AM 77 76 0 0 5.61
5/14/2018 1:00 AM 75 85 0 0 5.85
5/14/2018 2:00 AM 74 85 0 0 6.84
5/14/2018 3:00 AM 73 85 0 0 6.84
5/14/2018 4:00 AM 73 85 0 0 6.55
5/14/2018 5:00 AM 73 85 0 0 6.55
5/14/2018 6:00 AM 73 89 0.01 0 3.92
5/14/2018 7:00 AM 72 90 0.18 0 4
5/14/2018 8:00 AM 74 90 0.51 0 5.25
5/14/2018 9:00 AM 75 87 0.59 0 5.25
5/14/2018 10:00 AM 77 81 1.48 0 5.43
5/14/2018 11:00 AM 79 72 2.07 0 7.18
5/14/2018 12:00 PM 81 62 2.55 0 7.18
5/14/2018 1:00 PM 82 57 2.55 0 5.81
5/14/2018 2:00 PM 84 57 2.72 0 6.44
5/14/2018 3:00 PM 85 51 2.72 0 6.44
5/14/2018 4:00 PM 85 50 2.29 0 6.25
5/14/2018 5:00 PM 85 49 1.8 0 6.13
5/14/2018 6:00 PM 85 52 1.06 0 5.78
5/14/2018 7:00 PM 85 52 0.43 0 5.38
5/14/2018 8:00 PM 84 54 0.2 0 5.35
5/14/2018 9:00 PM 81 60 0.01 0 1.51
5/14/2018 10:00 PM 79 64 0 0 4.54
5/14/2018 11:00 PM 79 65 0 0 4.54
Data Summary 78 70 21.17 0.00 5.61